createdAt,value
2023-05-02T00:01:33.378Z,10.81
2023-05-02T00:04:02.893Z,10.80
2023-05-02T00:06:33.266Z,10.78
2023-05-02T00:09:04.185Z,10.76
2023-05-02T00:11:34.262Z,10.76
2023-05-02T00:14:03.690Z,10.76
2023-05-02T00:16:33.661Z,10.70
2023-05-02T00:19:04.113Z,10.67
2023-05-02T00:21:34.969Z,10.65
2023-05-02T00:24:06.149Z,10.70
2023-05-02T00:26:36.159Z,10.65
2023-05-02T00:29:06.536Z,10.64
2023-05-02T00:31:36.210Z,10.63
2023-05-02T00:34:06.298Z,10.63
2023-05-02T00:36:36.301Z,10.58
2023-05-02T00:39:06.620Z,10.55
2023-05-02T00:41:36.515Z,10.51
2023-05-02T00:44:07.201Z,10.45
2023-05-02T00:46:36.475Z,10.36
2023-05-02T00:49:05.940Z,10.35
2023-05-02T00:51:36.288Z,10.37
2023-05-02T00:54:07.777Z,10.33
2023-05-02T00:56:38.903Z,10.29
2023-05-02T00:59:10.241Z,10.31
2023-05-02T01:01:51.910Z,10.32
2023-05-02T01:04:40.337Z,10.25
2023-05-02T01:07:38.484Z,10.21
2023-05-02T01:10:24.896Z,10.25
2023-05-02T01:13:04.519Z,10.21
2023-05-02T01:15:39.919Z,10.19
2023-05-02T01:18:14.024Z,10.20
2023-05-02T01:20:46.102Z,10.16
2023-05-02T01:23:31.267Z,10.13
2023-05-02T01:26:21.016Z,10.04
2023-05-02T01:29:03.971Z,10.02
2023-05-02T01:31:38.930Z,10.02
2023-05-02T01:34:14.103Z,9.96
2023-05-02T01:36:47.236Z,9.97
2023-05-02T01:39:22.542Z,9.95
2023-05-02T01:41:54.261Z,9.92
2023-05-02T01:44:27.403Z,9.87
2023-05-02T01:47:00.152Z,9.77
2023-05-02T01:49:32.985Z,9.74
2023-05-02T01:52:11.661Z,9.79
2023-05-02T01:54:43.103Z,9.78
2023-05-02T01:57:14.119Z,9.79
2023-05-02T01:59:48.503Z,9.80
2023-05-02T02:02:18.839Z,9.80
2023-05-02T02:04:51.152Z,9.75
2023-05-02T02:07:21.659Z,9.71
2023-05-02T02:09:50.969Z,9.67
2023-05-02T02:12:28.668Z,9.64
2023-05-02T02:15:11.687Z,9.64
2023-05-02T02:17:49.530Z,9.64
2023-05-02T02:20:20.946Z,9.58
2023-05-02T02:22:51.435Z,9.58
2023-05-02T02:25:21.389Z,9.56
2023-05-02T02:27:51.717Z,9.59
2023-05-02T02:30:22.010Z,9.53
2023-05-02T02:32:52.870Z,9.50
2023-05-02T02:35:23.374Z,9.49
2023-05-02T02:38:05.660Z,9.49
2023-05-02T02:40:46.138Z,9.48
2023-05-02T02:43:35.335Z,9.47
2023-05-02T02:46:34.300Z,9.45
2023-05-02T02:49:24.065Z,9.43
2023-05-02T02:52:03.879Z,9.47
2023-05-02T02:54:45.296Z,9.46
2023-05-02T02:57:21.126Z,9.43
2023-05-02T03:00:03.622Z,9.41
2023-05-02T03:02:36.703Z,9.41
2023-05-02T03:05:11.520Z,9.39
2023-05-02T03:07:42.629Z,9.41
2023-05-02T03:10:12.495Z,9.39
2023-05-02T03:12:42.078Z,9.37
2023-05-02T03:15:31.296Z,9.31
2023-05-02T03:18:03.373Z,9.29
2023-05-02T03:20:33.272Z,9.32
2023-05-02T03:23:02.333Z,9.31
2023-05-02T03:25:31.734Z,9.31
2023-05-02T03:28:01.672Z,9.28
2023-05-02T03:30:30.751Z,9.28
2023-05-02T03:33:02.361Z,9.32
2023-05-02T03:35:31.753Z,9.32
2023-05-02T03:38:02.294Z,9.28
2023-05-02T03:40:32.233Z,9.24
2023-05-02T03:43:03.180Z,9.23
2023-05-02T03:45:32.535Z,9.21
2023-05-02T03:48:04.678Z,9.17
2023-05-02T03:50:34.222Z,9.18
2023-05-02T03:53:03.782Z,9.14
2023-05-02T03:55:33.754Z,9.13
2023-05-02T03:58:03.255Z,9.10
2023-05-02T04:00:35.180Z,9.08
2023-05-02T04:03:06.084Z,9.06
2023-05-02T04:05:36.461Z,9.05
2023-05-02T04:08:07.642Z,9.05
2023-05-02T04:10:38.177Z,9.04
2023-05-02T04:13:08.575Z,9.01
2023-05-02T04:15:37.146Z,8.96
2023-05-02T04:18:08.698Z,8.98
2023-05-02T04:20:38.830Z,8.94
2023-05-02T04:23:08.813Z,8.87
2023-05-02T04:25:39.370Z,8.90
2023-05-02T04:28:09.902Z,8.85
2023-05-02T04:30:40.088Z,8.86
2023-05-02T04:33:12.563Z,8.87
2023-05-02T04:35:43.976Z,8.87
2023-05-02T04:38:14.000Z,8.84
2023-05-02T04:40:44.380Z,8.83
2023-05-02T04:43:15.568Z,8.83
2023-05-02T04:45:45.199Z,8.80
2023-05-02T04:48:16.190Z,8.80
2023-05-02T04:50:47.469Z,8.79
2023-05-02T04:53:16.476Z,8.80
2023-05-02T04:55:46.064Z,8.85
2023-05-02T04:58:16.077Z,8.85
2023-05-02T05:00:45.042Z,8.86
2023-05-02T05:03:16.010Z,8.86
2023-05-02T05:05:44.985Z,8.89
2023-05-02T05:08:14.518Z,8.93
2023-05-02T05:10:45.009Z,8.94
2023-05-02T05:13:14.155Z,8.94
2023-05-02T05:15:44.601Z,8.96
2023-05-02T05:18:16.093Z,8.98
2023-05-02T05:20:46.611Z,9.00
2023-05-02T05:23:16.737Z,9.04
2023-05-02T05:25:47.249Z,9.05
2023-05-02T05:28:19.096Z,9.05
2023-05-02T05:30:48.947Z,9.10
2023-05-02T05:33:20.918Z,9.12
2023-05-02T05:35:50.275Z,9.16
2023-05-02T05:38:20.413Z,9.20
2023-05-02T05:40:52.435Z,9.24
2023-05-02T05:43:22.581Z,9.31
2023-05-02T05:45:54.417Z,9.36
2023-05-02T05:48:25.559Z,9.39
2023-05-02T05:50:54.955Z,9.43
2023-05-02T05:53:23.993Z,9.48
2023-05-02T05:55:53.410Z,9.55
2023-05-02T05:58:22.848Z,9.62
2023-05-02T06:00:52.919Z,9.70
2023-05-02T06:03:24.812Z,9.77
2023-05-02T06:05:55.374Z,9.83
2023-05-02T06:08:25.478Z,9.91
2023-05-02T06:10:55.528Z,9.96
2023-05-02T06:13:25.543Z,10.02
2023-05-02T06:15:56.585Z,10.09
2023-05-02T06:18:28.486Z,10.16
2023-05-02T06:20:59.071Z,10.23
2023-05-02T06:23:30.066Z,10.33
2023-05-02T06:26:02.482Z,10.41
2023-05-02T06:28:32.934Z,10.49
2023-05-02T06:31:04.308Z,10.57
2023-05-02T06:33:35.945Z,10.67
2023-05-02T06:36:07.258Z,10.75
2023-05-02T06:38:37.225Z,10.81
2023-05-02T06:41:06.843Z,10.88
2023-05-02T06:43:37.176Z,10.95
2023-05-02T06:46:07.842Z,11.01
2023-05-02T06:48:39.815Z,11.07
2023-05-02T06:51:09.644Z,11.14
2023-05-02T06:53:39.631Z,11.21
2023-05-02T06:56:10.217Z,11.28
2023-05-02T06:58:40.174Z,11.35
2023-05-02T07:01:09.651Z,11.39
2023-05-02T07:03:42.083Z,11.42
2023-05-02T07:06:11.492Z,11.45
2023-05-02T07:08:41.047Z,11.51
2023-05-02T07:11:09.934Z,11.56
2023-05-02T07:13:39.404Z,11.61
2023-05-02T07:16:10.570Z,11.67
2023-05-02T07:18:42.973Z,11.72
2023-05-02T07:21:12.931Z,11.75
2023-05-02T07:23:42.390Z,11.78
2023-05-02T07:26:12.891Z,11.87
2023-05-02T07:28:43.367Z,11.92
2023-05-02T07:31:12.231Z,11.97
2023-05-02T07:33:43.703Z,12.02
2023-05-02T07:36:13.732Z,12.09
2023-05-02T07:38:44.790Z,12.16
2023-05-02T07:41:16.324Z,12.18
2023-05-02T07:43:45.776Z,12.23
2023-05-02T07:46:15.190Z,12.27
2023-05-02T07:48:46.820Z,12.31
2023-05-02T07:51:16.372Z,12.34
2023-05-02T07:53:47.363Z,12.37
2023-05-02T07:56:17.391Z,12.44
2023-05-02T07:58:47.356Z,12.46
2023-05-02T08:01:18.309Z,12.50
2023-05-02T08:03:49.982Z,12.53
2023-05-02T08:06:19.893Z,12.58
2023-05-02T08:08:49.314Z,12.61
2023-05-02T08:11:18.792Z,12.62
2023-05-02T08:13:48.788Z,12.63
2023-05-02T08:16:18.596Z,12.70
2023-05-02T08:18:49.654Z,12.74
2023-05-02T08:21:20.362Z,12.80
2023-05-02T08:23:50.854Z,12.83
2023-05-02T08:26:22.479Z,12.85
2023-05-02T08:28:52.905Z,12.84
2023-05-02T08:31:22.482Z,12.87
2023-05-02T08:33:53.858Z,12.87
2023-05-02T08:36:24.333Z,12.89
2023-05-02T08:38:54.759Z,12.91
2023-05-02T08:41:25.741Z,12.92
2023-05-02T08:43:56.556Z,12.98
2023-05-02T08:46:27.718Z,13.02
2023-05-02T08:49:01.205Z,13.01
2023-05-02T08:51:33.661Z,13.06
2023-05-02T08:54:06.060Z,13.10
2023-05-02T08:56:36.564Z,13.16
2023-05-02T08:59:06.634Z,13.19
2023-05-02T09:01:37.576Z,13.23
2023-05-02T09:04:08.432Z,13.28
2023-05-02T09:06:39.850Z,13.36
2023-05-02T09:09:08.453Z,13.40
2023-05-02T09:11:38.432Z,13.45
2023-05-02T09:14:19.110Z,13.48
2023-05-02T09:16:50.074Z,13.53
2023-05-02T09:19:28.994Z,13.60
2023-05-02T09:22:03.469Z,13.60
2023-05-02T09:24:33.613Z,13.66
2023-05-02T09:27:05.424Z,13.68
2023-05-02T09:29:38.038Z,13.77
2023-05-02T09:32:08.073Z,13.81
2023-05-02T09:34:39.915Z,13.84
2023-05-02T09:37:13.209Z,13.85
2023-05-02T09:39:43.755Z,13.86
2023-05-02T09:42:13.270Z,13.90
2023-05-02T09:44:44.478Z,13.97
2023-05-02T09:47:28.528Z,14.00
2023-05-02T09:49:59.967Z,14.07
2023-05-02T09:52:30.425Z,14.13
2023-05-02T09:55:00.608Z,14.18
2023-05-02T09:57:42.861Z,14.22
2023-05-02T10:00:20.082Z,14.27
2023-05-02T10:02:52.233Z,14.29
2023-05-02T10:05:24.956Z,14.33
2023-05-02T10:07:58.368Z,14.39
2023-05-02T10:10:28.719Z,14.39
2023-05-02T10:12:58.726Z,14.42
2023-05-02T10:15:32.563Z,14.50
2023-05-02T10:18:05.101Z,14.55
2023-05-02T10:20:44.942Z,14.63
2023-05-02T10:23:18.036Z,14.66
2023-05-02T10:25:48.933Z,14.74
2023-05-02T10:28:18.622Z,14.79
2023-05-02T10:30:50.547Z,14.74
2023-05-02T10:33:20.863Z,14.70
2023-05-02T10:35:52.141Z,14.78
2023-05-02T10:38:24.722Z,14.87
2023-05-02T10:41:01.352Z,14.96
2023-05-02T10:43:38.471Z,15.03
2023-05-02T10:46:32.760Z,15.08
2023-05-02T10:49:08.640Z,15.05
2023-05-02T10:51:42.691Z,15.05
2023-05-02T10:54:22.609Z,15.13
2023-05-02T10:57:28.136Z,15.13
2023-05-02T11:00:17.036Z,15.11
2023-05-02T11:02:51.685Z,15.05
2023-05-02T11:05:21.298Z,15.08
2023-05-02T11:07:52.379Z,15.03
2023-05-02T11:10:29.928Z,14.94
2023-05-02T11:13:01.924Z,14.95
2023-05-02T11:15:57.853Z,14.93
2023-05-02T11:18:28.461Z,14.90
2023-05-02T11:21:30.352Z,14.94
2023-05-02T11:24:49.805Z,15.04
2023-05-02T11:27:44.557Z,15.10
2023-05-02T11:30:15.987Z,15.09
2023-05-02T11:33:17.841Z,15.21
2023-05-02T11:35:51.212Z,15.26
2023-05-02T11:38:23.238Z,15.27
2023-05-02T11:40:56.597Z,15.26
2023-05-02T11:43:29.961Z,15.28
2023-05-02T11:46:02.183Z,15.28
2023-05-02T11:48:33.151Z,15.33
2023-05-02T11:51:07.361Z,15.36
2023-05-02T11:53:43.662Z,15.42
2023-05-02T11:56:15.601Z,15.39
2023-05-02T11:58:46.988Z,15.35
2023-05-02T12:01:17.705Z,15.41
2023-05-02T12:03:48.990Z,15.49
2023-05-02T12:06:20.788Z,15.55
2023-05-02T12:08:55.560Z,15.60
2023-05-02T12:11:27.028Z,15.69
2023-05-02T12:13:57.665Z,15.71
2023-05-02T12:16:29.018Z,15.76
2023-05-02T12:18:59.622Z,15.79
2023-05-02T12:21:30.974Z,15.81
2023-05-02T12:24:01.016Z,15.80
2023-05-02T12:26:33.780Z,15.81
2023-05-02T12:29:03.794Z,15.82
2023-05-02T12:31:33.281Z,15.83
2023-05-02T12:34:02.145Z,15.78
2023-05-02T12:36:31.668Z,15.80
2023-05-02T12:39:02.224Z,15.89
2023-05-02T12:41:37.773Z,15.95
2023-05-02T12:44:08.146Z,15.96
2023-05-02T12:46:38.152Z,15.95
2023-05-02T12:49:09.635Z,15.92
2023-05-02T12:51:41.312Z,15.92
2023-05-02T12:54:21.508Z,15.86
2023-05-02T12:56:53.440Z,15.83
2023-05-02T12:59:31.124Z,15.82
2023-05-02T13:02:02.477Z,15.79
2023-05-02T13:04:40.795Z,15.87
2023-05-02T13:07:11.806Z,15.99
2023-05-02T13:09:41.193Z,16.09
2023-05-02T13:12:13.723Z,16.21
2023-05-02T13:14:43.635Z,16.27
2023-05-02T13:17:12.894Z,16.32
2023-05-02T13:20:00.992Z,16.32
2023-05-02T13:22:32.020Z,16.26
2023-05-02T13:25:01.315Z,16.20
2023-05-02T13:27:32.277Z,16.16
2023-05-02T13:30:04.186Z,16.15
2023-05-02T13:32:36.735Z,16.13
2023-05-02T13:35:06.617Z,16.18
2023-05-02T13:37:36.228Z,16.19
2023-05-02T13:40:06.008Z,16.29
2023-05-02T13:42:37.450Z,16.42
2023-05-02T13:45:10.293Z,16.53
2023-05-02T13:47:39.542Z,16.69
2023-05-02T13:50:13.130Z,16.85
2023-05-02T13:52:43.168Z,16.99
2023-05-02T13:55:13.313Z,17.15
2023-05-02T13:57:44.166Z,17.30
2023-05-02T14:00:16.274Z,17.32
2023-05-02T14:02:46.963Z,17.31
2023-05-02T14:05:16.038Z,17.43
2023-05-02T14:07:47.119Z,17.41
2023-05-02T14:10:17.120Z,17.42
2023-05-02T14:12:48.660Z,17.51
2023-05-02T14:15:19.176Z,17.49
2023-05-02T14:17:49.131Z,17.56
2023-05-02T14:20:18.873Z,17.71
2023-05-02T14:22:49.411Z,17.81
2023-05-02T14:25:21.160Z,17.83
2023-05-02T14:27:53.068Z,17.91
2023-05-02T14:30:23.411Z,18.02
2023-05-02T14:32:54.683Z,18.15
2023-05-02T14:35:26.452Z,18.30
2023-05-02T14:37:56.023Z,18.43
2023-05-02T14:40:25.003Z,18.52
2023-05-02T14:42:55.705Z,18.55
2023-05-02T14:45:25.337Z,18.62
2023-05-02T14:47:56.607Z,18.73
2023-05-02T14:50:26.998Z,18.68
2023-05-02T14:52:57.626Z,18.78
2023-05-02T14:55:27.141Z,18.68
2023-05-02T14:57:59.535Z,18.76
2023-05-02T15:00:28.949Z,18.82
2023-05-02T15:02:58.394Z,18.81
2023-05-02T15:05:29.459Z,18.89
2023-05-02T15:07:59.612Z,18.80
2023-05-02T15:10:29.192Z,18.75
2023-05-02T15:13:01.669Z,18.84
2023-05-02T15:15:31.774Z,18.93
2023-05-02T15:18:01.990Z,19.06
2023-05-02T15:20:31.383Z,19.14
2023-05-02T15:23:03.628Z,19.12
2023-05-02T15:25:34.402Z,19.17
2023-05-02T15:28:06.307Z,19.21
2023-05-02T15:30:36.063Z,19.17
2023-05-02T15:33:05.748Z,19.03
2023-05-02T15:35:35.818Z,19.00
2023-05-02T15:38:04.781Z,19.05
2023-05-02T15:40:34.063Z,19.00
2023-05-02T15:43:05.973Z,18.90
2023-05-02T15:45:36.822Z,18.87
2023-05-02T15:48:06.091Z,18.86
2023-05-02T15:50:35.363Z,18.79
2023-05-02T15:53:04.845Z,18.69
2023-05-02T15:55:35.981Z,18.56
2023-05-02T15:58:06.262Z,18.40
2023-05-02T16:00:35.675Z,18.31
2023-05-02T16:03:05.391Z,18.17
2023-05-02T16:05:35.131Z,18.15
2023-05-02T16:08:04.303Z,18.06
2023-05-02T16:10:33.989Z,18.00
2023-05-02T16:13:03.379Z,17.92
2023-05-02T16:15:33.218Z,17.88
2023-05-02T16:18:02.696Z,17.84
2023-05-02T16:20:34.547Z,17.86
2023-05-02T16:23:05.375Z,17.83
2023-05-02T16:25:35.686Z,17.77
2023-05-02T16:28:05.719Z,17.75
2023-05-02T16:30:38.999Z,17.67
2023-05-02T16:33:08.248Z,17.68
2023-05-02T16:35:38.111Z,17.69
2023-05-02T16:38:07.800Z,17.73
2023-05-02T16:40:37.706Z,17.68
2023-05-02T16:43:09.460Z,17.67
2023-05-02T16:45:40.354Z,17.67
2023-05-02T16:48:09.661Z,17.66
2023-05-02T16:50:39.093Z,17.65
2023-05-02T16:53:08.656Z,17.66
2023-05-02T16:55:39.703Z,17.58
2023-05-02T16:58:09.027Z,17.48
2023-05-02T17:00:40.985Z,17.38
2023-05-02T17:03:10.488Z,17.32
2023-05-02T17:05:39.494Z,17.24
2023-05-02T17:08:09.856Z,17.11
2023-05-02T17:10:40.404Z,17.02
2023-05-02T17:13:09.921Z,16.98
2023-05-02T17:15:40.690Z,16.86
2023-05-02T17:18:10.244Z,16.80
2023-05-02T17:20:39.931Z,16.75
2023-05-02T17:23:09.856Z,16.70
2023-05-02T17:25:40.380Z,16.69
2023-05-02T17:28:09.915Z,16.62
2023-05-02T17:30:41.390Z,16.44
2023-05-02T17:33:11.749Z,16.35
2023-05-02T17:35:40.700Z,16.18
2023-05-02T17:38:10.713Z,16.14
2023-05-02T17:40:39.091Z,16.15
2023-05-02T17:43:08.618Z,16.05
2023-05-02T17:45:40.146Z,15.90
2023-05-02T17:48:11.343Z,15.72
2023-05-02T17:50:41.179Z,15.68
2023-05-02T17:53:10.674Z,15.67
2023-05-02T17:55:40.744Z,15.58
2023-05-02T17:58:10.068Z,15.52
2023-05-02T18:00:40.436Z,15.43
2023-05-02T18:03:11.348Z,15.37
2023-05-02T18:05:41.168Z,15.35
2023-05-02T18:08:10.594Z,15.26
2023-05-02T18:10:41.179Z,15.27
2023-05-02T18:13:10.486Z,15.26
2023-05-02T18:15:39.992Z,15.25
2023-05-02T18:18:11.540Z,15.12
2023-05-02T18:20:40.996Z,15.10
2023-05-02T18:23:09.897Z,15.08
2023-05-02T18:25:39.247Z,15.04
2023-05-02T18:28:08.231Z,14.99
2023-05-02T18:30:39.099Z,14.92
2023-05-02T18:33:10.084Z,14.81
2023-05-02T18:35:39.045Z,14.76
2023-05-02T18:38:09.133Z,14.69
2023-05-02T18:40:39.177Z,14.63
2023-05-02T18:43:08.622Z,14.47
2023-05-02T18:45:39.893Z,14.45
2023-05-02T18:48:10.412Z,14.43
2023-05-02T18:50:40.994Z,14.39
2023-05-02T18:53:10.195Z,14.42
2023-05-02T18:55:40.282Z,14.38
2023-05-02T18:58:10.214Z,14.38
2023-05-02T19:00:40.148Z,14.33
2023-05-02T19:03:11.146Z,14.21
2023-05-02T19:05:42.835Z,14.17
2023-05-02T19:08:12.030Z,14.11
2023-05-02T19:10:41.451Z,14.05
2023-05-02T19:13:10.975Z,13.98
2023-05-02T19:15:40.066Z,13.96
2023-05-02T19:18:11.014Z,13.88
2023-05-02T19:20:41.959Z,13.87
2023-05-02T19:23:18.892Z,13.81
2023-05-02T19:25:50.070Z,13.71
2023-05-02T19:28:20.401Z,13.64
2023-05-02T19:30:49.305Z,13.52
2023-05-02T19:33:20.919Z,13.43
2023-05-02T19:35:49.899Z,13.36
2023-05-02T19:38:19.501Z,13.32
2023-05-02T19:40:49.998Z,13.19
2023-05-02T19:43:19.441Z,13.17
2023-05-02T19:45:49.063Z,13.04
2023-05-02T19:48:19.462Z,12.98
2023-05-02T19:50:47.864Z,12.96
2023-05-02T19:53:19.116Z,12.89
2023-05-02T19:55:49.604Z,12.76
2023-05-02T19:58:20.197Z,12.63
2023-05-02T20:00:50.257Z,12.60
2023-05-02T20:03:22.312Z,12.58
2023-05-02T20:05:51.404Z,12.55
2023-05-02T20:08:22.862Z,12.53
2023-05-02T20:10:52.860Z,12.54
2023-05-02T20:13:21.964Z,12.42
2023-05-02T20:15:53.239Z,12.42
2023-05-02T20:18:23.679Z,12.32
2023-05-02T20:20:53.053Z,12.23
2023-05-02T20:23:23.180Z,12.16
2023-05-02T20:25:53.741Z,12.10
2023-05-02T20:28:23.490Z,12.07
2023-05-02T20:30:52.536Z,11.98
2023-05-02T20:33:27.518Z,11.94
2023-05-02T20:36:00.708Z,11.92
2023-05-02T20:38:30.674Z,11.95
2023-05-02T20:41:00.190Z,11.73
2023-05-02T20:43:29.629Z,11.63
2023-05-02T20:45:59.641Z,11.48
2023-05-02T20:48:31.860Z,11.45
2023-05-02T20:51:02.583Z,11.46
2023-05-02T20:53:32.099Z,11.51
2023-05-02T20:56:01.540Z,11.42
2023-05-02T20:58:31.454Z,11.33
2023-05-02T21:01:01.498Z,11.16
2023-05-02T21:03:37.196Z,11.11
2023-05-02T21:06:07.484Z,11.17
2023-05-02T21:08:37.065Z,11.20
2023-05-02T21:11:15.203Z,11.15
2023-05-02T21:13:46.176Z,11.07
2023-05-02T21:16:20.170Z,11.06
2023-05-02T21:18:51.072Z,11.13
2023-05-02T21:21:20.474Z,11.08
2023-05-02T21:23:51.058Z,11.03
2023-05-02T21:26:19.787Z,10.98
2023-05-02T21:28:48.223Z,10.85
2023-05-02T21:31:17.733Z,10.76
2023-05-02T21:33:47.558Z,10.77
2023-05-02T21:36:18.968Z,10.70
2023-05-02T21:38:50.981Z,10.58
2023-05-02T21:41:20.564Z,10.62
2023-05-02T21:43:49.495Z,10.58
2023-05-02T21:46:18.445Z,10.37
2023-05-02T21:48:47.877Z,10.21
2023-05-02T21:51:18.893Z,10.30
2023-05-02T21:53:48.280Z,10.33
2023-05-02T21:56:18.669Z,10.25
2023-05-02T21:58:49.690Z,10.19
2023-05-02T22:01:19.683Z,10.14
2023-05-02T22:03:49.827Z,10.11
2023-05-02T22:06:20.898Z,10.00
2023-05-02T22:08:51.494Z,9.95
2023-05-02T22:11:22.383Z,9.92
2023-05-02T22:13:52.956Z,9.91
2023-05-02T22:16:22.944Z,9.89
2023-05-02T22:18:52.516Z,9.85
2023-05-02T22:21:23.431Z,9.81
2023-05-02T22:23:51.830Z,9.74
2023-05-02T22:26:21.282Z,9.79
2023-05-02T22:28:50.985Z,9.77
2023-05-02T22:31:21.544Z,9.72
2023-05-02T22:33:50.684Z,9.68
2023-05-02T22:36:22.044Z,9.67
2023-05-02T22:38:52.477Z,9.58
2023-05-02T22:41:20.934Z,9.58
2023-05-02T22:43:51.006Z,9.53
2023-05-02T22:46:21.218Z,9.48
2023-05-02T22:48:53.075Z,9.45
2023-05-02T22:51:24.075Z,9.40
2023-05-02T22:53:54.734Z,9.38
2023-05-02T22:56:25.581Z,9.40
2023-05-02T22:58:56.246Z,9.32
2023-05-02T23:01:27.000Z,9.28
2023-05-02T23:03:58.238Z,9.19
2023-05-02T23:06:29.796Z,9.23
2023-05-02T23:08:59.925Z,9.27
2023-05-02T23:11:29.217Z,9.27
2023-05-02T23:14:00.291Z,9.13
2023-05-02T23:16:30.360Z,9.07
2023-05-02T23:18:59.928Z,9.03
2023-05-02T23:21:30.877Z,8.97
2023-05-02T23:24:01.871Z,8.94
2023-05-02T23:26:32.955Z,8.91
2023-05-02T23:29:03.135Z,8.90
2023-05-02T23:31:33.553Z,8.90
2023-05-02T23:34:05.096Z,8.89
2023-05-02T23:36:37.559Z,8.86
2023-05-02T23:39:06.501Z,8.71
2023-05-02T23:41:36.099Z,8.77
2023-05-02T23:44:06.188Z,8.74
2023-05-02T23:46:35.802Z,8.71
2023-05-02T23:49:05.407Z,8.64
2023-05-02T23:51:38.324Z,8.57
2023-05-02T23:54:07.968Z,8.50
2023-05-02T23:56:38.348Z,8.44
2023-05-02T23:59:08.960Z,8.42
